sensor_id;sensor_type;location;lat;lon;timestamp;P1;durP1;ratioP1;P2;durP2;ratioP2
64197;SDS011;50512;53.666;9.700;2022-07-12T00:02:03;5.20;;;2.42;;
64197;SDS011;50512;53.666;9.700;2022-07-12T00:04:29;5.35;;;2.50;;
64197;SDS011;50512;53.666;9.700;2022-07-12T00:06:54;5.00;;;2.90;;
64197;SDS011;50512;53.666;9.700;2022-07-12T00:09:20;4.28;;;2.63;;
64197;SDS011;50512;53.666;9.700;2022-07-12T00:11:45;5.00;;;2.22;;
64197;SDS011;50512;53.666;9.700;2022-07-12T00:14:12;4.78;;;2.65;;
64197;SDS011;50512;53.666;9.700;2022-07-12T00:16:38;4.82;;;2.53;;
64197;SDS011;50512;53.666;9.700;2022-07-12T00:19:03;5.50;;;2.83;;
64197;SDS011;50512;53.666;9.700;2022-07-12T00:21:29;5.90;;;2.92;;
64197;SDS011;50512;53.666;9.700;2022-07-12T00:23:54;4.70;;;2.75;;
64197;SDS011;50512;53.666;9.700;2022-07-12T00:26:20;4.72;;;2.70;;
64197;SDS011;50512;53.666;9.700;2022-07-12T00:28:45;3.85;;;2.20;;
64197;SDS011;50512;53.666;9.700;2022-07-12T00:31:12;5.47;;;2.78;;
64197;SDS011;50512;53.666;9.700;2022-07-12T00:33:38;5.45;;;2.75;;
64197;SDS011;50512;53.666;9.700;2022-07-12T00:36:04;4.78;;;2.67;;
64197;SDS011;50512;53.666;9.700;2022-07-12T00:38:30;4.43;;;2.70;;
64197;SDS011;50512;53.666;9.700;2022-07-12T00:40:56;4.95;;;2.47;;
64197;SDS011;50512;53.666;9.700;2022-07-12T00:43:21;5.45;;;2.65;;
64197;SDS011;50512;53.666;9.700;2022-07-12T00:45:47;5.68;;;2.60;;
64197;SDS011;50512;53.666;9.700;2022-07-12T00:48:13;4.63;;;2.38;;
64197;SDS011;50512;53.666;9.700;2022-07-12T00:50:40;4.70;;;2.42;;
64197;SDS011;50512;53.666;9.700;2022-07-12T00:53:06;5.97;;;2.58;;
64197;SDS011;50512;53.666;9.700;2022-07-12T00:55:32;4.28;;;2.47;;
64197;SDS011;50512;53.666;9.700;2022-07-12T00:57:57;5.50;;;2.88;;
64197;SDS011;50512;53.666;9.700;2022-07-12T01:00:24;5.15;;;2.75;;
64197;SDS011;50512;53.666;9.700;2022-07-12T01:02:50;4.75;;;2.00;;
64197;SDS011;50512;53.666;9.700;2022-07-12T01:05:17;3.90;;;2.20;;
64197;SDS011;50512;53.666;9.700;2022-07-12T01:07:43;6.38;;;2.50;;
64197;SDS011;50512;53.666;9.700;2022-07-12T01:10:09;4.75;;;2.38;;
64197;SDS011;50512;53.666;9.700;2022-07-12T01:12:35;3.83;;;1.98;;
64197;SDS011;50512;53.666;9.700;2022-07-12T01:15:01;5.20;;;2.50;;
64197;SDS011;50512;53.666;9.700;2022-07-12T01:17:27;4.80;;;2.20;;
64197;SDS011;50512;53.666;9.700;2022-07-12T01:19:53;5.22;;;2.95;;
64197;SDS011;50512;53.666;9.700;2022-07-12T01:22:25;5.28;;;2.50;;
64197;SDS011;50512;53.666;9.700;2022-07-12T01:24:53;5.43;;;2.60;;
64197;SDS011;50512;53.666;9.700;2022-07-12T01:27:18;6.00;;;3.33;;
64197;SDS011;50512;53.666;9.700;2022-07-12T01:29:44;6.65;;;2.92;;
64197;SDS011;50512;53.666;9.700;2022-07-12T01:32:09;6.45;;;2.75;;
64197;SDS011;50512;53.666;9.700;2022-07-12T01:34:35;4.55;;;2.47;;
64197;SDS011;50512;53.666;9.700;2022-07-12T01:37:01;5.07;;;2.38;;
64197;SDS011;50512;53.666;9.700;2022-07-12T01:39:26;5.10;;;2.63;;
64197;SDS011;50512;53.666;9.700;2022-07-12T01:41:53;6.28;;;2.65;;
64197;SDS011;50512;53.666;9.700;2022-07-12T01:44:19;6.63;;;3.22;;
64197;SDS011;50512;53.666;9.700;2022-07-12T01:46:44;5.28;;;2.88;;
64197;SDS011;50512;53.666;9.700;2022-07-12T01:49:10;9.07;;;3.95;;
64197;SDS011;50512;53.666;9.700;2022-07-12T01:51:35;6.72;;;3.00;;
64197;SDS011;50512;53.666;9.700;2022-07-12T01:54:01;6.68;;;3.33;;
64197;SDS011;50512;53.666;9.700;2022-07-12T01:56:26;6.07;;;2.92;;
64197;SDS011;50512;53.666;9.700;2022-07-12T01:58:53;6.93;;;3.10;;
64197;SDS011;50512;53.666;9.700;2022-07-12T02:01:19;5.75;;;2.35;;
64197;SDS011;50512;53.666;9.700;2022-07-12T02:03:45;5.13;;;2.65;;
64197;SDS011;50512;53.666;9.700;2022-07-12T02:06:10;5.18;;;2.80;;
64197;SDS011;50512;53.666;9.700;2022-07-12T02:08:36;4.47;;;2.60;;
64197;SDS011;50512;53.666;9.700;2022-07-12T02:11:05;5.55;;;2.95;;
64197;SDS011;50512;53.666;9.700;2022-07-12T02:13:31;6.85;;;2.85;;
64197;SDS011;50512;53.666;9.700;2022-07-12T02:15:57;6.93;;;2.85;;
64197;SDS011;50512;53.666;9.700;2022-07-12T02:18:23;6.28;;;2.58;;
64197;SDS011;50512;53.666;9.700;2022-07-12T02:20:48;5.85;;;2.50;;
64197;SDS011;50512;53.666;9.700;2022-07-12T02:23:14;6.13;;;2.80;;
64197;SDS011;50512;53.666;9.700;2022-07-12T02:25:39;6.50;;;2.78;;
64197;SDS011;50512;53.666;9.700;2022-07-12T02:28:05;8.65;;;2.72;;
64197;SDS011;50512;53.666;9.700;2022-07-12T02:30:30;6.38;;;3.50;;
64197;SDS011;50512;53.666;9.700;2022-07-12T02:32:57;5.85;;;3.00;;
64197;SDS011;50512;53.666;9.700;2022-07-12T02:35:23;9.00;;;3.38;;
64197;SDS011;50512;53.666;9.700;2022-07-12T02:37:48;6.45;;;3.28;;
64197;SDS011;50512;53.666;9.700;2022-07-12T02:40:13;5.45;;;2.80;;
64197;SDS011;50512;53.666;9.700;2022-07-12T02:42:39;5.80;;;2.92;;
64197;SDS011;50512;53.666;9.700;2022-07-12T02:45:05;5.97;;;2.90;;
64197;SDS011;50512;53.666;9.700;2022-07-12T02:47:31;6.25;;;2.97;;
64197;SDS011;50512;53.666;9.700;2022-07-12T02:49:59;5.38;;;2.50;;
64197;SDS011;50512;53.666;9.700;2022-07-12T02:52:24;7.90;;;3.58;;
64197;SDS011;50512;53.666;9.700;2022-07-12T02:54:50;7.18;;;3.28;;
64197;SDS011;50512;53.666;9.700;2022-07-12T02:57:15;7.68;;;3.40;;
64197;SDS011;50512;53.666;9.700;2022-07-12T02:59:40;6.75;;;3.20;;
64197;SDS011;50512;53.666;9.700;2022-07-12T03:02:06;8.65;;;3.67;;
64197;SDS011;50512;53.666;9.700;2022-07-12T03:04:31;5.55;;;2.92;;
64197;SDS011;50512;53.666;9.700;2022-07-12T03:06:58;5.30;;;2.88;;
64197;SDS011;50512;53.666;9.700;2022-07-12T03:09:24;6.53;;;3.15;;
64197;SDS011;50512;53.666;9.700;2022-07-12T03:11:49;6.22;;;3.05;;
64197;SDS011;50512;53.666;9.700;2022-07-12T03:14:15;6.60;;;3.03;;
64197;SDS011;50512;53.666;9.700;2022-07-12T03:16:40;9.25;;;3.05;;
64197;SDS011;50512;53.666;9.700;2022-07-12T03:19:06;5.90;;;3.03;;
64197;SDS011;50512;53.666;9.700;2022-07-12T03:21:31;6.57;;;3.40;;
64197;SDS011;50512;53.666;9.700;2022-07-12T03:23:58;6.57;;;2.80;;
64197;SDS011;50512;53.666;9.700;2022-07-12T03:26:23;7.15;;;3.30;;
64197;SDS011;50512;53.666;9.700;2022-07-12T03:28:49;7.35;;;3.42;;
64197;SDS011;50512;53.666;9.700;2022-07-12T03:31:14;8.57;;;3.42;;
64197;SDS011;50512;53.666;9.700;2022-07-12T03:33:40;9.13;;;4.00;;
64197;SDS011;50512;53.666;9.700;2022-07-12T03:36:06;9.02;;;4.03;;
64197;SDS011;50512;53.666;9.700;2022-07-12T03:38:32;13.68;;;4.18;;
64197;SDS011;50512;53.666;9.700;2022-07-12T03:40:59;9.35;;;4.70;;
64197;SDS011;50512;53.666;9.700;2022-07-12T03:43:24;8.73;;;4.43;;
64197;SDS011;50512;53.666;9.700;2022-07-12T03:45:50;11.00;;;4.25;;
64197;SDS011;50512;53.666;9.700;2022-07-12T03:48:15;8.38;;;4.05;;
64197;SDS011;50512;53.666;9.700;2022-07-12T03:50:41;9.02;;;3.95;;
64197;SDS011;50512;53.666;9.700;2022-07-12T03:53:06;9.40;;;4.07;;
64197;SDS011;50512;53.666;9.700;2022-07-12T03:55:31;8.30;;;3.78;;
64197;SDS011;50512;53.666;9.700;2022-07-12T03:57:58;10.95;;;4.22;;
64197;SDS011;50512;53.666;9.700;2022-07-12T04:00:24;7.50;;;4.15;;
64197;SDS011;50512;53.666;9.700;2022-07-12T04:02:49;10.52;;;4.53;;
64197;SDS011;50512;53.666;9.700;2022-07-12T04:05:15;8.13;;;4.07;;
64197;SDS011;50512;53.666;9.700;2022-07-12T04:07:40;8.98;;;3.90;;
64197;SDS011;50512;53.666;9.700;2022-07-12T04:10:06;8.18;;;4.20;;
64197;SDS011;50512;53.666;9.700;2022-07-12T04:12:32;9.15;;;3.92;;
64197;SDS011;50512;53.666;9.700;2022-07-12T04:14:59;9.63;;;4.05;;
64197;SDS011;50512;53.666;9.700;2022-07-12T04:17:27;8.95;;;4.30;;
64197;SDS011;50512;53.666;9.700;2022-07-12T04:19:52;9.35;;;4.65;;
64197;SDS011;50512;53.666;9.700;2022-07-12T04:22:17;9.65;;;4.70;;
64197;SDS011;50512;53.666;9.700;2022-07-12T04:24:43;8.95;;;4.63;;
64197;SDS011;50512;53.666;9.700;2022-07-12T04:27:08;9.95;;;4.57;;
64197;SDS011;50512;53.666;9.700;2022-07-12T04:29:34;8.68;;;4.80;;
64197;SDS011;50512;53.666;9.700;2022-07-12T04:32:01;7.78;;;3.85;;
64197;SDS011;50512;53.666;9.700;2022-07-12T04:34:26;8.95;;;4.40;;
64197;SDS011;50512;53.666;9.700;2022-07-12T04:36:52;8.00;;;4.03;;
64197;SDS011;50512;53.666;9.700;2022-07-12T04:39:17;8.02;;;4.00;;
64197;SDS011;50512;53.666;9.700;2022-07-12T04:41:42;7.80;;;3.97;;
64197;SDS011;50512;53.666;9.700;2022-07-12T04:44:08;9.80;;;4.63;;
64197;SDS011;50512;53.666;9.700;2022-07-12T04:46:34;11.40;;;4.40;;
64197;SDS011;50512;53.666;9.700;2022-07-12T04:49:00;8.68;;;4.43;;
64197;SDS011;50512;53.666;9.700;2022-07-12T04:51:26;7.95;;;4.25;;
64197;SDS011;50512;53.666;9.700;2022-07-12T04:53:51;9.00;;;4.25;;
64197;SDS011;50512;53.666;9.700;2022-07-12T04:56:17;11.25;;;4.63;;
64197;SDS011;50512;53.666;9.700;2022-07-12T04:58:42;9.52;;;4.90;;
64197;SDS011;50512;53.666;9.700;2022-07-12T05:01:08;9.48;;;3.70;;
64197;SDS011;50512;53.666;9.700;2022-07-12T05:03:34;9.80;;;4.25;;
64197;SDS011;50512;53.666;9.700;2022-07-12T05:06:01;10.90;;;4.80;;
64197;SDS011;50512;53.666;9.700;2022-07-12T05:08:26;12.98;;;5.05;;
64197;SDS011;50512;53.666;9.700;2022-07-12T05:10:52;11.18;;;4.88;;
64197;SDS011;50512;53.666;9.700;2022-07-12T05:13:17;8.30;;;3.90;;
64197;SDS011;50512;53.666;9.700;2022-07-12T05:15:43;10.35;;;4.60;;
64197;SDS011;50512;53.666;9.700;2022-07-12T05:18:08;7.20;;;3.83;;
64197;SDS011;50512;53.666;9.700;2022-07-12T05:20:34;10.30;;;3.67;;
64197;SDS011;50512;53.666;9.700;2022-07-12T05:23:01;8.20;;;3.70;;
64197;SDS011;50512;53.666;9.700;2022-07-12T05:25:26;9.70;;;4.30;;
64197;SDS011;50512;53.666;9.700;2022-07-12T05:27:51;9.30;;;3.67;;
64197;SDS011;50512;53.666;9.700;2022-07-12T05:30:17;9.20;;;4.30;;
64197;SDS011;50512;53.666;9.700;2022-07-12T05:32:42;9.00;;;3.60;;
64197;SDS011;50512;53.666;9.700;2022-07-12T05:35:08;6.55;;;3.70;;
64197;SDS011;50512;53.666;9.700;2022-07-12T05:37:34;9.50;;;3.60;;
64197;SDS011;50512;53.666;9.700;2022-07-12T05:40:00;6.80;;;3.25;;
64197;SDS011;50512;53.666;9.700;2022-07-12T05:42:26;6.53;;;3.10;;
64197;SDS011;50512;53.666;9.700;2022-07-12T05:44:51;5.75;;;2.75;;
64197;SDS011;50512;53.666;9.700;2022-07-12T05:47:17;6.80;;;3.60;;
64197;SDS011;50512;53.666;9.700;2022-07-12T05:49:42;7.72;;;3.70;;
64197;SDS011;50512;53.666;9.700;2022-07-12T05:52:08;7.15;;;2.95;;
64197;SDS011;50512;53.666;9.700;2022-07-12T05:54:33;5.40;;;2.50;;
64197;SDS011;50512;53.666;9.700;2022-07-12T05:57:00;6.80;;;2.92;;
64197;SDS011;50512;53.666;9.700;2022-07-12T05:59:25;6.30;;;2.97;;
64197;SDS011;50512;53.666;9.700;2022-07-12T06:01:51;5.47;;;2.65;;
64197;SDS011;50512;53.666;9.700;2022-07-12T06:04:16;6.55;;;2.80;;
64197;SDS011;50512;53.666;9.700;2022-07-12T06:06:42;5.05;;;2.67;;
64197;SDS011;50512;53.666;9.700;2022-07-12T06:09:07;5.03;;;2.50;;
64197;SDS011;50512;53.666;9.700;2022-07-12T06:11:32;5.68;;;2.65;;
64197;SDS011;50512;53.666;9.700;2022-07-12T06:13:59;5.22;;;2.78;;
64197;SDS011;50512;53.666;9.700;2022-07-12T06:16:25;5.22;;;2.60;;
64197;SDS011;50512;53.666;9.700;2022-07-12T06:18:50;5.13;;;2.40;;
64197;SDS011;50512;53.666;9.700;2022-07-12T06:21:16;5.28;;;2.00;;
64197;SDS011;50512;53.666;9.700;2022-07-12T06:23:41;5.65;;;2.35;;
64197;SDS011;50512;53.666;9.700;2022-07-12T06:26:07;4.13;;;1.92;;
64197;SDS011;50512;53.666;9.700;2022-07-12T06:28:32;5.93;;;3.00;;
64197;SDS011;50512;53.666;9.700;2022-07-12T06:31:00;4.10;;;2.00;;
64197;SDS011;50512;53.666;9.700;2022-07-12T06:33:26;4.90;;;2.20;;
64197;SDS011;50512;53.666;9.700;2022-07-12T06:35:51;3.75;;;1.88;;
64197;SDS011;50512;53.666;9.700;2022-07-12T06:38:17;3.45;;;1.88;;
64197;SDS011;50512;53.666;9.700;2022-07-12T06:40:42;4.53;;;1.90;;
64197;SDS011;50512;53.666;9.700;2022-07-12T06:43:08;3.80;;;2.10;;
64197;SDS011;50512;53.666;9.700;2022-07-12T06:45:34;3.63;;;2.10;;
64197;SDS011;50512;53.666;9.700;2022-07-12T06:48:00;4.20;;;2.17;;
64197;SDS011;50512;53.666;9.700;2022-07-12T06:50:26;4.45;;;2.22;;
64197;SDS011;50512;53.666;9.700;2022-07-12T06:52:51;3.40;;;1.95;;
64197;SDS011;50512;53.666;9.700;2022-07-12T06:55:17;3.25;;;1.88;;
64197;SDS011;50512;53.666;9.700;2022-07-12T06:57:42;3.75;;;2.10;;
64197;SDS011;50512;53.666;9.700;2022-07-12T07:00:08;3.40;;;1.95;;
64197;SDS011;50512;53.666;9.700;2022-07-12T07:02:34;4.38;;;2.00;;
64197;SDS011;50512;53.666;9.700;2022-07-12T07:05:00;3.20;;;1.95;;
64197;SDS011;50512;53.666;9.700;2022-07-12T07:07:26;3.95;;;1.90;;
64197;SDS011;50512;53.666;9.700;2022-07-12T07:09:51;4.07;;;2.00;;
64197;SDS011;50512;53.666;9.700;2022-07-12T07:12:17;6.00;;;2.03;;
64197;SDS011;50512;53.666;9.700;2022-07-12T07:14:42;3.17;;;1.88;;
64197;SDS011;50512;53.666;9.700;2022-07-12T07:17:08;5.18;;;2.05;;
64197;SDS011;50512;53.666;9.700;2022-07-12T07:19:33;6.57;;;2.85;;
64197;SDS011;50512;53.666;9.700;2022-07-12T07:22:02;3.72;;;1.98;;
64197;SDS011;50512;53.666;9.700;2022-07-12T07:24:28;6.90;;;2.38;;
64197;SDS011;50512;53.666;9.700;2022-07-12T07:26:53;4.00;;;1.80;;
64197;SDS011;50512;53.666;9.700;2022-07-12T07:29:19;4.05;;;2.10;;
64197;SDS011;50512;53.666;9.700;2022-07-12T07:31:44;3.35;;;1.85;;
64197;SDS011;50512;53.666;9.700;2022-07-12T07:34:10;3.08;;;1.60;;
64197;SDS011;50512;53.666;9.700;2022-07-12T07:36:35;5.50;;;2.10;;
64197;SDS011;50512;53.666;9.700;2022-07-12T07:39:02;4.53;;;2.00;;
64197;SDS011;50512;53.666;9.700;2022-07-12T07:41:28;4.18;;;1.77;;
64197;SDS011;50512;53.666;9.700;2022-07-12T07:43:53;4.43;;;1.65;;
64197;SDS011;50512;53.666;9.700;2022-07-12T07:46:19;3.72;;;1.83;;
64197;SDS011;50512;53.666;9.700;2022-07-12T07:48:45;4.05;;;2.15;;
64197;SDS011;50512;53.666;9.700;2022-07-12T07:51:10;6.03;;;2.75;;
64197;SDS011;50512;53.666;9.700;2022-07-12T07:53:35;3.78;;;1.80;;
64197;SDS011;50512;53.666;9.700;2022-07-12T07:56:02;3.03;;;1.90;;
64197;SDS011;50512;53.666;9.700;2022-07-12T07:58:28;3.33;;;1.60;;
64197;SDS011;50512;53.666;9.700;2022-07-12T08:00:53;3.92;;;1.90;;
64197;SDS011;50512;53.666;9.700;2022-07-12T08:03:19;4.85;;;1.70;;
64197;SDS011;50512;53.666;9.700;2022-07-12T08:05:45;4.50;;;1.90;;
64197;SDS011;50512;53.666;9.700;2022-07-12T08:08:11;2.55;;;1.48;;
64197;SDS011;50512;53.666;9.700;2022-07-12T08:10:36;3.35;;;1.67;;
64197;SDS011;50512;53.666;9.700;2022-07-12T08:13:03;2.88;;;1.40;;
64197;SDS011;50512;53.666;9.700;2022-07-12T08:15:29;2.45;;;1.65;;
64197;SDS011;50512;53.666;9.700;2022-07-12T08:17:55;2.47;;;1.55;;
64197;SDS011;50512;53.666;9.700;2022-07-12T08:20:20;2.95;;;1.70;;
64197;SDS011;50512;53.666;9.700;2022-07-12T08:22:46;3.13;;;1.50;;
64197;SDS011;50512;53.666;9.700;2022-07-12T08:25:12;4.53;;;1.77;;
64197;SDS011;50512;53.666;9.700;2022-07-12T08:27:38;3.00;;;1.90;;
64197;SDS011;50512;53.666;9.700;2022-07-12T08:30:05;2.15;;;1.52;;
64197;SDS011;50512;53.666;9.700;2022-07-12T08:32:32;3.35;;;1.80;;
64197;SDS011;50512;53.666;9.700;2022-07-12T08:34:57;3.00;;;1.90;;
64197;SDS011;50512;53.666;9.700;2022-07-12T08:37:23;4.05;;;1.95;;
64197;SDS011;50512;53.666;9.700;2022-07-12T08:39:48;2.30;;;1.65;;
64197;SDS011;50512;53.666;9.700;2022-07-12T08:42:14;3.40;;;1.40;;
64197;SDS011;50512;53.666;9.700;2022-07-12T08:44:41;3.50;;;1.77;;
64197;SDS011;50512;53.666;9.700;2022-07-12T08:47:08;4.93;;;1.75;;
64197;SDS011;50512;53.666;9.700;2022-07-12T08:49:34;2.30;;;1.52;;
64197;SDS011;50512;53.666;9.700;2022-07-12T08:52:01;4.93;;;1.77;;
64197;SDS011;50512;53.666;9.700;2022-07-12T08:54:48;3.45;;;1.77;;
64197;SDS011;50512;53.666;9.700;2022-07-12T08:57:15;2.10;;;1.65;;
64197;SDS011;50512;53.666;9.700;2022-07-12T08:59:57;3.55;;;1.60;;
64197;SDS011;50512;53.666;9.700;2022-07-12T09:02:25;9.00;;;2.40;;
64197;SDS011;50512;53.666;9.700;2022-07-12T09:04:55;3.08;;;1.70;;
64197;SDS011;50512;53.666;9.700;2022-07-12T09:07:33;1.67;;;1.25;;
64197;SDS011;50512;53.666;9.700;2022-07-12T09:10:02;2.47;;;1.50;;
64197;SDS011;50512;53.666;9.700;2022-07-12T09:12:28;3.05;;;1.80;;
64197;SDS011;50512;53.666;9.700;2022-07-12T09:14:53;2.75;;;1.85;;
64197;SDS011;50512;53.666;9.700;2022-07-12T09:17:21;2.90;;;1.42;;
64197;SDS011;50512;53.666;9.700;2022-07-12T09:19:54;2.85;;;1.45;;
64197;SDS011;50512;53.666;9.700;2022-07-12T09:22:20;2.00;;;1.40;;
64197;SDS011;50512;53.666;9.700;2022-07-12T09:24:46;2.33;;;1.75;;
64197;SDS011;50512;53.666;9.700;2022-07-12T09:27:11;2.65;;;1.60;;
64197;SDS011;50512;53.666;9.700;2022-07-12T09:29:45;4.78;;;1.70;;
64197;SDS011;50512;53.666;9.700;2022-07-12T09:32:11;3.08;;;1.83;;
64197;SDS011;50512;53.666;9.700;2022-07-12T09:34:37;2.40;;;1.60;;
64197;SDS011;50512;53.666;9.700;2022-07-12T09:37:04;1.83;;;1.58;;
64197;SDS011;50512;53.666;9.700;2022-07-12T09:39:30;2.97;;;1.50;;
64197;SDS011;50512;53.666;9.700;2022-07-12T09:41:55;2.22;;;1.80;;
64197;SDS011;50512;53.666;9.700;2022-07-12T09:44:21;2.22;;;1.60;;
64197;SDS011;50512;53.666;9.700;2022-07-12T09:46:49;1.88;;;1.55;;
64197;SDS011;50512;53.666;9.700;2022-07-12T09:49:16;2.30;;;1.75;;
64197;SDS011;50512;53.666;9.700;2022-07-12T09:51:43;2.95;;;1.60;;
64197;SDS011;50512;53.666;9.700;2022-07-12T09:54:10;4.28;;;1.60;;
64197;SDS011;50512;53.666;9.700;2022-07-12T09:56:38;2.22;;;1.65;;
64197;SDS011;50512;53.666;9.700;2022-07-12T09:59:08;2.83;;;1.80;;
64197;SDS011;50512;53.666;9.700;2022-07-12T10:01:37;1.92;;;1.48;;
64197;SDS011;50512;53.666;9.700;2022-07-12T10:04:03;2.50;;;1.50;;
64197;SDS011;50512;53.666;9.700;2022-07-12T10:06:29;2.58;;;1.80;;
64197;SDS011;50512;53.666;9.700;2022-07-12T10:08:55;2.50;;;1.50;;
64197;SDS011;50512;53.666;9.700;2022-07-12T10:11:22;3.35;;;2.03;;
64197;SDS011;50512;53.666;9.700;2022-07-12T10:13:49;4.38;;;1.80;;
64197;SDS011;50512;53.666;9.700;2022-07-12T10:16:15;3.13;;;1.50;;
64197;SDS011;50512;53.666;9.700;2022-07-12T10:18:49;2.05;;;1.63;;
64197;SDS011;50512;53.666;9.700;2022-07-12T10:21:46;3.25;;;1.83;;
64197;SDS011;50512;53.666;9.700;2022-07-12T10:27:32;4.28;;;1.75;;
64197;SDS011;50512;53.666;9.700;2022-07-12T10:32:54;3.75;;;1.80;;
64197;SDS011;50512;53.666;9.700;2022-07-12T10:35:22;2.65;;;1.55;;
64197;SDS011;50512;53.666;9.700;2022-07-12T10:40:39;4.03;;;2.00;;
64197;SDS011;50512;53.666;9.700;2022-07-12T10:43:14;3.97;;;1.90;;
64197;SDS011;50512;53.666;9.700;2022-07-12T10:45:41;1.50;;;1.30;;
64197;SDS011;50512;53.666;9.700;2022-07-12T10:48:08;1.98;;;1.67;;
64197;SDS011;50512;53.666;9.700;2022-07-12T10:50:49;4.65;;;1.92;;
64197;SDS011;50512;53.666;9.700;2022-07-12T10:53:22;3.42;;;1.50;;
64197;SDS011;50512;53.666;9.700;2022-07-12T10:58:50;2.75;;;1.50;;
64197;SDS011;50512;53.666;9.700;2022-07-12T11:01:18;3.35;;;1.40;;
64197;SDS011;50512;53.666;9.700;2022-07-12T11:03:45;3.00;;;1.58;;
64197;SDS011;50512;53.666;9.700;2022-07-12T11:06:12;4.47;;;1.80;;
64197;SDS011;50512;53.666;9.700;2022-07-12T11:08:50;3.33;;;1.88;;
64197;SDS011;50512;53.666;9.700;2022-07-12T11:11:23;2.70;;;1.90;;
64197;SDS011;50512;53.666;9.700;2022-07-12T11:13:52;5.00;;;1.85;;
64197;SDS011;50512;53.666;9.700;2022-07-12T11:16:18;2.95;;;1.70;;
64197;SDS011;50512;53.666;9.700;2022-07-12T11:18:43;1.88;;;1.42;;
64197;SDS011;50512;53.666;9.700;2022-07-12T11:21:09;2.63;;;1.77;;
64197;SDS011;50512;53.666;9.700;2022-07-12T11:23:35;2.15;;;1.60;;
64197;SDS011;50512;53.666;9.700;2022-07-12T11:26:01;1.95;;;1.52;;
64197;SDS011;50512;53.666;9.700;2022-07-12T11:28:28;1.95;;;1.50;;
64197;SDS011;50512;53.666;9.700;2022-07-12T11:31:00;4.03;;;1.90;;
64197;SDS011;50512;53.666;9.700;2022-07-12T11:33:29;6.38;;;1.88;;
64197;SDS011;50512;53.666;9.700;2022-07-12T11:35:55;22.52;;;3.55;;
64197;SDS011;50512;53.666;9.700;2022-07-12T11:38:23;5.25;;;2.03;;
64197;SDS011;50512;53.666;9.700;2022-07-12T11:40:49;4.68;;;1.80;;
64197;SDS011;50512;53.666;9.700;2022-07-12T11:43:19;3.25;;;1.58;;
64197;SDS011;50512;53.666;9.700;2022-07-12T11:45:45;2.78;;;1.70;;
64197;SDS011;50512;53.666;9.700;2022-07-12T11:48:12;3.67;;;1.70;;
64197;SDS011;50512;53.666;9.700;2022-07-12T11:50:41;2.53;;;1.58;;
64197;SDS011;50512;53.666;9.700;2022-07-12T11:53:12;2.35;;;1.63;;
64197;SDS011;50512;53.666;9.700;2022-07-12T11:55:43;2.45;;;1.40;;
64197;SDS011;50512;53.666;9.700;2022-07-12T11:58:10;3.90;;;1.70;;
64197;SDS011;50512;53.666;9.700;2022-07-12T12:00:35;2.42;;;1.58;;
64197;SDS011;50512;53.666;9.700;2022-07-12T12:03:01;3.13;;;1.60;;
64197;SDS011;50512;53.666;9.700;2022-07-12T12:05:28;6.00;;;1.77;;
64197;SDS011;50512;53.666;9.700;2022-07-12T12:07:54;3.05;;;1.60;;
64197;SDS011;50512;53.666;9.700;2022-07-12T12:10:19;2.90;;;1.73;;
64197;SDS011;50512;53.666;9.700;2022-07-12T12:12:45;1.70;;;1.40;;
64197;SDS011;50512;53.666;9.700;2022-07-12T12:15:12;3.33;;;1.67;;
64197;SDS011;50512;53.666;9.700;2022-07-12T12:17:43;2.47;;;1.65;;
64197;SDS011;50512;53.666;9.700;2022-07-12T12:20:10;3.38;;;1.95;;
64197;SDS011;50512;53.666;9.700;2022-07-12T12:22:38;2.83;;;1.50;;
64197;SDS011;50512;53.666;9.700;2022-07-12T12:25:04;2.78;;;2.00;;
64197;SDS011;50512;53.666;9.700;2022-07-12T12:27:30;1.83;;;1.55;;
64197;SDS011;50512;53.666;9.700;2022-07-12T12:29:57;4.72;;;2.20;;
64197;SDS011;50512;53.666;9.700;2022-07-12T12:32:23;3.05;;;1.70;;
64197;SDS011;50512;53.666;9.700;2022-07-12T12:35:05;3.08;;;1.70;;
64197;SDS011;50512;53.666;9.700;2022-07-12T12:37:31;2.42;;;1.85;;
64197;SDS011;50512;53.666;9.700;2022-07-12T12:39:58;8.55;;;1.90;;
64197;SDS011;50512;53.666;9.700;2022-07-12T12:42:24;1.83;;;1.58;;
64197;SDS011;50512;53.666;9.700;2022-07-12T12:44:49;3.10;;;1.88;;
64197;SDS011;50512;53.666;9.700;2022-07-12T12:47:15;3.70;;;1.90;;
64197;SDS011;50512;53.666;9.700;2022-07-12T12:49:43;3.80;;;1.85;;
64197;SDS011;50512;53.666;9.700;2022-07-12T12:52:09;2.58;;;1.60;;
64197;SDS011;50512;53.666;9.700;2022-07-12T12:54:35;2.75;;;1.65;;
64197;SDS011;50512;53.666;9.700;2022-07-12T12:57:03;2.92;;;1.90;;
64197;SDS011;50512;53.666;9.700;2022-07-12T12:59:29;2.92;;;1.83;;
64197;SDS011;50512;53.666;9.700;2022-07-12T13:01:55;2.83;;;1.67;;
64197;SDS011;50512;53.666;9.700;2022-07-12T13:04:20;3.15;;;1.77;;
64197;SDS011;50512;53.666;9.700;2022-07-12T13:06:46;3.10;;;1.90;;
64197;SDS011;50512;53.666;9.700;2022-07-12T13:09:11;3.05;;;1.55;;
64197;SDS011;50512;53.666;9.700;2022-07-12T13:11:36;2.03;;;1.65;;
64197;SDS011;50512;53.666;9.700;2022-07-12T13:14:03;3.13;;;1.63;;
64197;SDS011;50512;53.666;9.700;2022-07-12T13:16:29;4.32;;;2.00;;
64197;SDS011;50512;53.666;9.700;2022-07-12T13:18:54;2.95;;;1.65;;
64197;SDS011;50512;53.666;9.700;2022-07-12T13:21:20;2.45;;;1.70;;
64197;SDS011;50512;53.666;9.700;2022-07-12T13:23:45;2.50;;;1.48;;
64197;SDS011;50512;53.666;9.700;2022-07-12T13:26:10;2.92;;;1.70;;
64197;SDS011;50512;53.666;9.700;2022-07-12T13:28:36;4.85;;;1.80;;
64197;SDS011;50512;53.666;9.700;2022-07-12T13:31:03;3.88;;;2.90;;
64197;SDS011;50512;53.666;9.700;2022-07-12T13:33:28;4.10;;;2.13;;
64197;SDS011;50512;53.666;9.700;2022-07-12T13:35:54;4.85;;;2.58;;
64197;SDS011;50512;53.666;9.700;2022-07-12T13:38:19;2.47;;;1.75;;
64197;SDS011;50512;53.666;9.700;2022-07-12T13:40:45;2.85;;;1.80;;
64197;SDS011;50512;53.666;9.700;2022-07-12T13:43:11;2.58;;;1.70;;
64197;SDS011;50512;53.666;9.700;2022-07-12T13:45:36;3.58;;;2.00;;
64197;SDS011;50512;53.666;9.700;2022-07-12T13:48:04;5.00;;;2.58;;
64197;SDS011;50512;53.666;9.700;2022-07-12T13:50:29;4.15;;;1.92;;
64197;SDS011;50512;53.666;9.700;2022-07-12T13:52:55;2.72;;;1.73;;
64197;SDS011;50512;53.666;9.700;2022-07-12T13:55:20;3.08;;;1.70;;
64197;SDS011;50512;53.666;9.700;2022-07-12T13:57:46;3.85;;;2.13;;
64197;SDS011;50512;53.666;9.700;2022-07-12T14:00:12;3.30;;;2.00;;
64197;SDS011;50512;53.666;9.700;2022-07-12T14:02:40;3.72;;;2.08;;
64197;SDS011;50512;53.666;9.700;2022-07-12T14:05:08;2.50;;;1.88;;
64197;SDS011;50512;53.666;9.700;2022-07-12T14:07:35;3.45;;;1.83;;
64197;SDS011;50512;53.666;9.700;2022-07-12T14:10:02;3.03;;;1.48;;
64197;SDS011;50512;53.666;9.700;2022-07-12T14:12:28;2.38;;;1.98;;
64197;SDS011;50512;53.666;9.700;2022-07-12T14:14:53;2.65;;;1.80;;
64197;SDS011;50512;53.666;9.700;2022-07-12T14:17:18;2.85;;;2.00;;
64197;SDS011;50512;53.666;9.700;2022-07-12T14:19:44;3.25;;;1.80;;
64197;SDS011;50512;53.666;9.700;2022-07-12T14:22:11;4.78;;;2.08;;
64197;SDS011;50512;53.666;9.700;2022-07-12T14:24:36;3.30;;;2.70;;
64197;SDS011;50512;53.666;9.700;2022-07-12T14:27:02;4.38;;;2.40;;
64197;SDS011;50512;53.666;9.700;2022-07-12T14:29:27;4.60;;;2.22;;
64197;SDS011;50512;53.666;9.700;2022-07-12T14:31:53;4.43;;;3.00;;
64197;SDS011;50512;53.666;9.700;2022-07-12T14:34:18;3.92;;;2.75;;
64197;SDS011;50512;53.666;9.700;2022-07-12T14:36:44;5.07;;;2.65;;
64197;SDS011;50512;53.666;9.700;2022-07-12T14:39:10;7.40;;;3.70;;
64197;SDS011;50512;53.666;9.700;2022-07-12T14:41:36;5.50;;;3.42;;
64197;SDS011;50512;53.666;9.700;2022-07-12T14:44:01;4.38;;;2.97;;
64197;SDS011;50512;53.666;9.700;2022-07-12T14:46:27;11.52;;;3.83;;
64197;SDS011;50512;53.666;9.700;2022-07-12T14:48:52;5.80;;;3.17;;
64197;SDS011;50512;53.666;9.700;2022-07-12T14:51:18;5.63;;;3.67;;
64197;SDS011;50512;53.666;9.700;2022-07-12T14:53:43;4.07;;;2.88;;
64197;SDS011;50512;53.666;9.700;2022-07-12T14:56:10;7.20;;;3.53;;